Time;durP1;ratioP1;P1;durP2;ratioP2;P2;SDS_P1;SDS_P2;PMS_P1;PMS_P2;Temp;Humidity;BMP_temperature;BMP_pressure;BME280_temperature;BME280_humidity;BME280_pressure;Samples;Min_cycle;Max_cycle;Signal;HPM_P1;HPM_P2
2022/07/23 00:00:24;;;;;;;9.73;7.27;;;24.00;99.90;;;;;;5026051;28;20895;-81
2022/07/23 00:03:09;;;;;;;6.97;6.27;;;24.10;99.90;;;;;;5025015;28;20392;-81
2022/07/23 00:05:53;;;;;;;6.90;6.20;;;24.00;99.90;;;;;;5026253;28;20424;-81
2022/07/23 00:08:37;;;;;;;7.40;6.70;;;24.10;99.90;;;;;;5025290;28;20399;-81
2022/07/23 00:11:21;;;;;;;7.97;7.30;;;24.20;99.90;;;;;;5026300;28;20404;-81
2022/07/23 00:14:06;;;;;;;9.23;7.23;;;24.10;99.90;;;;;;5024189;28;20404;-81
2022/07/23 00:16:51;;;;;;;8.60;7.90;;;23.90;99.90;;;;;;5026117;28;20392;-81
2022/07/23 00:19:35;;;;;;;7.90;7.20;;;23.60;99.90;;;;;;5025974;28;20444;-81
2022/07/23 00:22:19;;;;;;;7.47;6.73;;;23.50;99.90;;;;;;5025766;28;20405;-81
2022/07/23 00:25:04;;;;;;;10.30;7.97;;;23.60;99.90;;;;;;5026072;28;20396;-81
2022/07/23 00:27:48;;;;;;;7.70;6.97;;;23.90;99.90;;;;;;5025261;28;20425;-81
2022/07/23 00:30:33;;;;;;;10.33;7.33;;;23.90;99.90;;;;;;5024622;28;20472;-81
2022/07/23 00:33:17;;;;;;;7.80;7.00;;;24.00;99.90;;;;;;5025824;28;20459;-79
2022/07/23 00:36:02;;;;;;;8.77;7.40;;;24.00;99.90;;;;;;5025782;28;20980;-81
2022/07/23 00:38:46;;;;;;;9.07;7.70;;;24.00;99.90;;;;;;5026000;28;20395;-81
2022/07/23 00:41:31;;;;;;;8.27;7.10;;;24.10;99.90;;;;;;5026198;28;20395;-80
2022/07/23 00:44:24;;;;;;;8.83;8.00;;;24.10;99.90;;;;;;5011116;28;20407;-81
2022/07/23 00:47:09;;;;;;;17.00;6.77;;;24.00;99.90;;;;;;5011188;28;20459;-81
2022/07/23 00:49:53;;;;;;;7.60;6.63;;;24.00;99.90;;;;;;5026038;28;20407;-81
2022/07/23 00:52:39;;;;;;;7.17;6.30;;;24.00;99.90;;;;;;5024971;28;20479;-81
2022/07/23 00:55:24;;;;;;;9.47;7.20;;;24.00;99.90;;;;;;5025845;28;20388;-81
2022/07/23 00:58:09;;;;;;;11.50;7.27;;;24.00;99.90;;;;;;5025829;28;20427;-81
2022/07/23 01:00:54;;;;;;;7.83;7.10;;;23.90;99.90;;;;;;5025602;28;20459;-81
2022/07/23 01:03:38;;;;;;;12.40;7.60;;;23.70;99.90;;;;;;5026016;28;20780;-80
2022/07/23 01:06:22;;;;;;;10.10;8.77;;;23.50;99.90;;;;;;5025169;28;20431;-80
2022/07/23 01:09:07;;;;;;;10.67;8.30;;;23.10;99.90;;;;;;5025645;28;20415;-81
2022/07/23 01:11:56;;;;;;;9.30;7.70;;;22.80;99.90;;;;;;5025836;28;20813;-81
2022/07/23 01:14:40;;;;;;;7.63;6.90;;;22.50;99.90;;;;;;5026223;28;20496;-81
2022/07/23 01:17:25;;;;;;;8.80;8.00;;;22.60;99.90;;;;;;5031022;28;20395;-78
2022/07/23 01:20:09;;;;;;;8.57;7.70;;;22.50;99.90;;;;;;5030720;28;20396;-79
2022/07/23 01:22:54;;;;;;;8.83;8.03;;;22.70;99.90;;;;;;5005443;28;20451;-77
2022/07/23 01:25:48;;;;;;;7.13;6.53;;;23.00;99.90;;;;;;5017913;28;20395;-77
2022/07/23 01:28:32;;;;;;;9.00;5.97;;;23.10;99.90;;;;;;5034768;28;20400;-78
2022/07/23 01:31:17;;;;;;;7.03;6.43;;;23.20;99.90;;;;;;5034241;28;20411;-80
2022/07/23 01:34:02;;;;;;;8.97;8.20;;;23.30;99.90;;;;;;5034148;28;20504;-80
2022/07/23 01:36:47;;;;;;;8.00;7.20;;;23.30;99.90;;;;;;5032788;28;20464;-79
2022/07/23 01:39:31;;;;;;;8.30;7.50;;;23.30;99.90;;;;;;5031731;28;20420;-81
2022/07/23 01:42:16;;;;;;;8.30;7.50;;;23.30;99.90;;;;;;5030758;28;20394;-81
2022/07/23 01:45:00;;;;;;;9.93;8.27;;;23.30;99.90;;;;;;5016326;28;20470;-81
2022/07/23 01:47:45;;;;;;;14.80;9.00;;;23.40;99.90;;;;;;5035661;28;20459;-79
2022/07/23 01:50:30;;;;;;;9.73;7.47;;;23.30;99.90;;;;;;5035767;28;20422;-79
2022/07/23 01:53:15;;;;;;;12.23;7.33;;;23.30;99.90;;;;;;5034891;28;20530;-81
2022/07/23 01:56:00;;;;;;;11.20;8.73;;;23.40;99.90;;;;;;5030251;28;20569;-81
2022/07/23 01:58:44;;;;;;;8.63;6.50;;;23.40;99.90;;;;;;5030151;28;20418;-81
2022/07/23 02:01:29;;;;;;;8.17;7.00;;;23.30;99.90;;;;;;5030026;28;20398;-81
2022/07/23 02:04:13;;;;;;;7.87;7.17;;;23.20;99.90;;;;;;5028987;28;20747;-81
2022/07/23 02:06:58;;;;;;;7.50;6.87;;;23.30;99.90;;;;;;5028342;28;20480;-81
2022/07/23 02:09:42;;;;;;;8.43;7.33;;;23.30;99.90;;;;;;5028572;28;20395;-80
2022/07/23 02:12:27;;;;;;;13.20;7.40;;;23.30;99.90;;;;;;5028961;28;20814;-81
2022/07/23 02:15:12;;;;;;;9.87;8.87;;;23.30;99.90;;;;;;5028466;28;20431;-81
2022/07/23 02:17:57;;;;;;;10.20;7.70;;;23.30;99.90;;;;;;5014060;28;20439;-82
2022/07/23 02:20:41;;;;;;;13.93;8.20;;;23.30;99.90;;;;;;5028078;28;20496;-82
2022/07/23 02:23:26;;;;;;;6.67;6.07;;;23.30;99.90;;;;;;5028708;28;20412;-82
2022/07/23 02:26:10;;;;;;;10.20;8.40;;;23.30;99.90;;;;;;5028908;28;20403;-81
2022/07/23 02:28:55;;;;;;;8.70;7.83;;;23.40;99.90;;;;;;5028743;28;20454;-81
2022/07/23 02:31:39;;;;;;;7.90;6.93;;;23.30;99.90;;;;;;5028654;28;20392;-81
2022/07/23 02:34:24;;;;;;;8.77;7.90;;;23.10;99.90;;;;;;5027964;28;20442;-81
2022/07/23 02:37:08;;;;;;;7.57;6.87;;;22.70;99.90;;;;;;5027994;28;20452;-81
2022/07/23 02:39:54;;;;;;;8.83;7.23;;;22.50;99.90;;;;;;5028541;28;20388;-81
2022/07/23 02:42:38;;;;;;;7.87;7.27;;;22.40;99.90;;;;;;5027904;28;20392;-81
2022/07/23 02:45:23;;;;;;;10.17;7.50;;;22.40;99.90;;;;;;5013863;28;20399;-81
2022/07/23 02:48:08;;;;;;;8.33;7.53;;;22.50;99.90;;;;;;5026566;28;20475;-80
2022/07/23 02:50:52;;;;;;;7.43;6.73;;;22.70;99.90;;;;;;5027212;28;20423;-80
2022/07/23 02:53:37;;;;;;;7.40;6.80;;;22.80;99.90;;;;;;5027305;28;20467;-79
2022/07/23 02:56:21;;;;;;;6.43;5.83;;;22.70;99.90;;;;;;5026951;28;20435;-80
2022/07/23 02:59:05;;;;;;;8.67;7.87;;;22.50;99.90;;;;;;5026511;28;20379;-81
2022/07/23 03:01:49;;;;;;;7.57;6.63;;;22.30;99.90;;;;;;5012481;28;20411;-79
2022/07/23 03:04:33;;;;;;;11.87;8.80;;;21.80;99.90;;;;;;5027588;28;20411;-81
2022/07/23 03:07:18;;;;;;;8.67;7.80;;;21.50;99.90;;;;;;5027552;28;20410;-80
2022/07/23 03:10:03;;;;;;;9.80;8.90;;;21.10;99.90;;;;;;5027496;28;20423;-81
2022/07/23 03:12:47;;;;;;;9.30;8.40;;;21.10;99.90;;;;;;5027041;28;20451;-80
2022/07/23 03:15:31;;;;;;;11.83;9.03;;;21.20;99.90;;;;;;5027320;28;20464;-80
2022/07/23 03:18:16;;;;;;;8.60;7.80;;;21.00;99.90;;;;;;5026882;28;20789;-80
2022/07/23 03:21:00;;;;;;;16.00;7.97;;;20.80;99.90;;;;;;5025942;28;20518;-81
2022/07/23 03:23:45;;;;;;;10.53;8.53;;;20.80;99.90;;;;;;5025466;28;20392;-80
2022/07/23 03:26:29;;;;;;;10.10;9.10;;;20.90;99.90;;;;;;5026056;28;20392;-80
2022/07/23 03:29:14;;;;;;;10.30;9.20;;;20.70;99.90;;;;;;5025018;28;20419;-80
2022/07/23 03:31:58;;;;;;;11.60;8.80;;;20.60;99.90;;;;;;5025264;28;20408;-81
2022/07/23 03:34:42;;;;;;;10.27;8.40;;;20.50;99.90;;;;;;5026237;28;20388;-81
2022/07/23 03:37:27;;;;;;;10.50;9.50;;;20.50;99.90;;;;;;5027875;28;20443;-78
2022/07/23 03:40:11;;;;;;;10.93;9.83;;;20.40;99.90;;;;;;5030901;28;20411;-80
2022/07/23 03:42:56;;;;;;;15.13;9.73;;;20.30;99.90;;;;;;5031019;28;20408;-81
2022/07/23 03:45:41;;;;;;;9.73;8.73;;;20.40;99.90;;;;;;5031294;28;20411;-79
2022/07/23 03:48:25;;;;;;;9.70;8.70;;;20.60;99.90;;;;;;5063287;28;20461;-80
2022/07/23 03:51:11;;;;;;;10.33;9.20;;;20.50;99.90;;;;;;5067030;28;20414;-80
2022/07/23 03:53:55;;;;;;;9.90;9.00;;;20.70;99.90;;;;;;5045328;28;20528;-81
2022/07/23 03:56:40;;;;;;;10.20;8.77;;;20.80;99.90;;;;;;5045956;28;20443;-80
2022/07/23 03:59:25;;;;;;;17.83;8.83;;;20.90;99.90;;;;;;5046365;28;20399;-81
2022/07/23 04:02:09;;;;;;;8.37;7.47;;;21.10;99.90;;;;;;5046040;28;20453;-81
2022/07/23 04:04:54;;;;;;;11.60;9.70;;;21.10;99.90;;;;;;5030110;28;20430;-81
2022/07/23 04:07:40;;;;;;;9.40;8.07;;;21.20;99.90;;;;;;5044768;28;20398;-81
2022/07/23 04:10:24;;;;;;;13.07;8.80;;;21.20;99.90;;;;;;5044744;28;20433;-80
2022/07/23 04:13:09;;;;;;;10.50;8.63;;;21.20;99.90;;;;;;5045140;28;20450;-81
2022/07/23 04:15:54;;;;;;;9.53;8.27;;;21.30;99.90;;;;;;5030249;28;20414;-81
2022/07/23 04:18:38;;;;;;;9.57;8.67;;;21.20;99.90;;;;;;5045535;28;20478;-80
2022/07/23 04:21:23;;;;;;;10.03;8.97;;;21.10;99.90;;;;;;5044403;28;20391;-80
2022/07/23 04:24:07;;;;;;;9.47;8.20;;;21.20;99.90;;;;;;5045028;28;20473;-80
2022/07/23 04:26:53;;;;;;;11.80;8.77;;;20.90;99.90;;;;;;5045019;28;20395;-80
2022/07/23 04:29:37;;;;;;;20.00;10.10;;;20.80;99.90;;;;;;5043965;28;20413;-80
2022/07/23 04:32:22;;;;;;;10.00;9.10;;;20.60;99.90;;;;;;5045160;28;20537;-81
2022/07/23 04:35:08;;;;;;;9.80;8.90;;;20.60;99.90;;;;;;5044272;28;20419;-80
2022/07/23 04:37:52;;;;;;;9.20;8.30;;;20.70;99.90;;;;;;5044201;28;20387;-79
2022/07/23 04:40:37;;;;;;;10.17;8.27;;;20.70;99.90;;;;;;5044091;28;20426;-81
2022/07/23 04:43:21;;;;;;;14.97;9.17;;;20.70;99.90;;;;;;5044549;28;20395;-80
2022/07/23 04:46:05;;;;;;;14.50;8.73;;;20.80;99.90;;;;;;5045081;28;20423;-81
2022/07/23 04:48:49;;;;;;;9.70;7.03;;;20.80;99.90;;;;;;5044400;28;20504;-81
2022/07/23 04:51:34;;;;;;;13.73;8.90;;;20.80;99.90;;;;;;5044604;28;20883;-81
2022/07/23 04:54:18;;;;;;;10.10;9.10;;;20.70;99.90;;;;;;5044695;28;20399;-80
2022/07/23 04:57:03;;;;;;;14.10;8.33;;;20.70;99.90;;;;;;5044829;28;20502;-79
2022/07/23 04:59:47;;;;;;;10.50;8.80;;;20.80;99.90;;;;;;5044908;28;20414;-80
2022/07/23 05:02:31;;;;;;;11.47;9.23;;;20.70;99.90;;;;;;5044357;28;20402;-81
2022/07/23 05:05:15;;;;;;;8.83;8.00;;;21.00;99.90;;;;;;5044174;28;20380;-80
2022/07/23 05:07:59;;;;;;;10.90;8.63;;;21.10;99.90;;;;;;5044771;28;20851;-80
2022/07/23 05:10:43;;;;;;;11.50;8.67;;;21.10;99.90;;;;;;5044555;28;20794;-80
2022/07/23 05:13:28;;;;;;;10.27;9.20;;;21.40;99.90;;;;;;5044345;28;20569;-80
2022/07/23 05:16:12;;;;;;;12.67;8.40;;;21.40;99.90;;;;;;5044910;28;20394;-80
2022/07/23 05:18:57;;;;;;;15.73;11.03;;;21.60;99.90;;;;;;5044375;28;20430;-80
2022/07/23 05:21:41;;;;;;;12.57;8.83;;;21.80;99.90;;;;;;5045554;28;20383;-80
2022/07/23 05:24:25;;;;;;;11.03;8.77;;;21.90;99.90;;;;;;5044331;28;20415;-81
2022/07/23 05:27:10;;;;;;;13.03;10.00;;;22.10;99.90;;;;;;5043815;28;20448;-80
2022/07/23 05:29:54;;;;;;;13.07;9.40;;;22.10;99.90;;;;;;5045090;28;20402;-81
2022/07/23 05:32:39;;;;;;;16.10;8.37;;;22.30;99.90;;;;;;5044430;28;20438;-81
2022/07/23 05:35:23;;;;;;;11.83;10.63;;;22.40;99.90;;;;;;5044173;28;20469;-81
2022/07/23 05:38:07;;;;;;;17.53;10.23;;;22.20;99.90;;;;;;5044625;28;20391;-81
2022/07/23 05:40:52;;;;;;;10.93;9.67;;;22.50;99.90;;;;;;5044484;28;20941;-80
2022/07/23 05:43:36;;;;;;;12.47;9.20;;;22.60;99.90;;;;;;5045146;28;20403;-81
2022/07/23 05:46:22;;;;;;;9.33;8.43;;;22.60;99.90;;;;;;5045704;28;20399;-81
2022/07/23 05:49:06;;;;;;;8.93;8.10;;;22.80;99.90;;;;;;5029736;28;20478;-81
2022/07/23 05:51:50;;;;;;;9.97;9.07;;;22.80;99.90;;;;;;5045146;28;20390;-80
2022/07/23 05:54:35;;;;;;;9.80;8.97;;;22.90;99.90;;;;;;5044891;28;20387;-80
2022/07/23 05:57:20;;;;;;;11.27;9.13;;;23.00;99.90;;;;;;5051689;28;20430;-78
2022/07/23 06:00:06;;;;;;;10.73;9.40;;;22.70;99.90;;;;;;5052292;28;20503;-79
2022/07/23 06:02:50;;;;;;;9.03;7.97;;;22.90;99.90;;;;;;5052128;28;20395;-79
2022/07/23 06:05:35;;;;;;;15.70;9.20;;;23.00;99.90;;;;;;5034229;28;20442;-81
2022/07/23 06:08:20;;;;;;;11.27;9.10;;;23.00;99.90;;;;;;5043605;28;20472;-79
2022/07/23 06:11:04;;;;;;;11.20;10.10;;;23.30;99.90;;;;;;5044999;28;20410;-80
2022/07/23 06:13:49;;;;;;;9.47;7.70;;;23.50;99.90;;;;;;5046210;28;20454;-79
2022/07/23 06:16:33;;;;;;;12.67;9.60;;;23.80;99.90;;;;;;5047737;28;20705;-81
2022/07/23 06:19:18;;;;;;;15.43;9.87;;;23.90;99.90;;;;;;5047345;28;20446;-81
2022/07/23 06:22:02;;;;;;;9.87;8.60;;;23.90;99.90;;;;;;5046204;28;20515;-81
2022/07/23 06:24:47;;;;;;;9.10;8.30;;;23.90;99.90;;;;;;5047701;28;20807;-81
2022/07/23 06:27:31;;;;;;;10.50;9.03;;;24.00;99.90;;;;;;5031918;28;20395;-81
2022/07/23 06:30:17;;;;;;;8.80;7.97;;;24.00;99.90;;;;;;5046433;28;20395;-81
2022/07/23 06:33:01;;;;;;;10.50;9.60;;;24.00;99.90;;;;;;5046822;28;20446;-81
2022/07/23 06:35:45;;;;;;;19.00;9.63;;;24.20;99.90;;;;;;5047070;28;20391;-81
2022/07/23 06:38:30;;;;;;;10.60;9.50;;;24.10;99.90;;;;;;5033290;28;20443;-81
2022/07/23 06:41:14;;;;;;;14.83;8.70;;;23.90;99.90;;;;;;5027950;28;20420;-82
2022/07/23 06:43:58;;;;;;;7.93;7.13;;;24.10;99.90;;;;;;5026738;28;20899;-82
2022/07/23 06:46:42;;;;;;;7.57;6.97;;;24.20;99.90;;;;;;5027497;28;20403;-81
2022/07/23 06:49:27;;;;;;;9.07;8.17;;;24.20;99.90;;;;;;5027700;28;20475;-81
2022/07/23 06:52:12;;;;;;;11.30;8.03;;;24.50;99.90;;;;;;5028265;28;20458;-81
2022/07/23 06:54:56;;;;;;;9.43;8.60;;;24.60;99.90;;;;;;5027650;28;20393;-82
2022/07/23 06:57:40;;;;;;;9.20;8.30;;;24.50;99.90;;;;;;5027944;28;20962;-81
2022/07/23 07:00:26;;;;;;;8.83;7.93;;;24.40;99.90;;;;;;5027614;28;20415;-82
2022/07/23 07:03:10;;;;;;;8.07;7.33;;;24.00;99.90;;;;;;5029728;28;20400;-81
2022/07/23 07:05:57;;;;;;;8.40;7.60;;;23.70;99.90;;;;;;5028252;28;20481;-82
2022/07/23 07:08:43;;;;;;;9.83;8.40;;;23.60;99.90;;;;;;5028211;28;20479;-82
2022/07/23 07:11:27;;;;;;;7.87;6.93;;;23.60;99.90;;;;;;5015177;28;20407;-82
2022/07/23 07:14:11;;;;;;;8.20;7.43;;;23.70;99.90;;;;;;5027100;28;20467;-80
2022/07/23 07:16:56;;;;;;;11.30;8.10;;;23.80;99.90;;;;;;5027014;28;20484;-81
2022/07/23 07:19:40;;;;;;;12.00;8.20;;;23.90;99.90;;;;;;5027394;28;20717;-81
2022/07/23 07:22:24;;;;;;;13.47;8.23;;;23.60;99.90;;;;;;5026629;28;20388;-82
2022/07/23 07:25:09;;;;;;;8.73;7.40;;;23.50;99.90;;;;;;5026492;28;20514;-81
2022/07/23 07:27:53;;;;;;;8.57;6.87;;;23.70;99.90;;;;;;5026036;28;20449;-81
2022/07/23 07:30:38;;;;;;;6.83;6.23;;;23.80;99.90;;;;;;5011667;28;20863;-81
2022/07/23 07:33:22;;;;;;;8.20;6.37;;;24.00;99.90;;;;;;5025929;28;20953;-81
2022/07/23 07:36:07;;;;;;;6.07;5.57;;;24.00;99.90;;;;;;5025467;28;20434;-79
2022/07/23 07:38:51;;;;;;;9.30;5.77;;;24.00;99.90;;;;;;5028590;28;20379;-79
2022/07/23 07:41:36;;;;;;;6.30;5.80;;;23.80;99.90;;;;;;5032583;28;20409;-79
2022/07/23 07:44:20;;;;;;;5.87;5.37;;;23.70;99.90;;;;;;5015283;28;20399;-82
2022/07/23 07:47:05;;;;;;;6.90;5.53;;;23.80;99.90;;;;;;5026365;28;20424;-80
2022/07/23 07:49:49;;;;;;;6.93;6.23;;;24.00;99.90;;;;;;5026150;28;20538;-80
2022/07/23 07:52:36;;;;;;;6.50;5.67;;;24.10;99.90;;;;;;5026097;28;20455;-81
2022/07/23 07:55:20;;;;;;;5.70;5.30;;;24.30;99.90;;;;;;5026071;28;20411;-82
2022/07/23 07:58:05;;;;;;;6.03;5.40;;;24.50;99.90;;;;;;5025768;28;20423;-82
2022/07/23 08:00:49;;;;;;;6.50;5.90;;;24.50;99.90;;;;;;5026393;28;20484;-79
2022/07/23 08:03:33;;;;;;;6.87;5.57;;;24.50;99.90;;;;;;5024068;28;20411;-81
2022/07/23 08:06:18;;;;;;;6.27;5.63;;;24.50;99.90;;;;;;5024041;28;20810;-81
2022/07/23 08:09:03;;;;;;;12.60;5.87;;;24.30;99.90;;;;;;5024183;28;20499;-80
2022/07/23 08:11:47;;;;;;;8.23;5.53;;;24.20;99.90;;;;;;5024787;28;20486;-81
2022/07/23 08:14:32;;;;;;;6.03;5.50;;;23.80;99.90;;;;;;5022185;28;20452;-80
2022/07/23 08:17:17;;;;;;;9.67;7.00;;;23.80;99.90;;;;;;5021476;28;20395;-81
2022/07/23 08:20:01;;;;;;;6.90;6.07;;;23.70;99.90;;;;;;5023047;28;20399;-81
2022/07/23 08:22:55;;;;;;;5.93;5.43;;;23.70;99.90;;;;;;5023799;28;20411;-81
2022/07/23 08:25:42;;;;;;;7.23;6.23;;;23.60;99.90;;;;;;5023622;28;20396;-81
2022/07/23 08:28:27;;;;;;;7.83;6.73;;;23.80;99.90;;;;;;5022091;28;20416;-81
2022/07/23 08:31:12;;;;;;;5.27;4.77;;;23.80;99.90;;;;;;5022560;28;20395;-80
2022/07/23 08:33:57;;;;;;;7.20;6.47;;;23.80;99.90;;;;;;5021813;28;20506;-81
2022/07/23 08:36:41;;;;;;;6.60;5.70;;;23.90;99.90;;;;;;5022316;28;20431;-81
2022/07/23 08:39:27;;;;;;;9.90;6.13;;;23.80;99.90;;;;;;5022487;28;20433;-81
2022/07/23 08:42:14;;;;;;;8.90;8.00;;;22.90;99.90;;;;;;5021888;28;20400;-81
2022/07/23 08:44:58;;;;;;;7.70;6.97;;;22.90;99.90;;;;;;5022932;28;20765;-81
2022/07/23 08:47:43;;;;;;;8.60;6.60;;;22.90;99.90;;;;;;5023812;28;20467;-80
2022/07/23 08:50:28;;;;;;;11.13;6.23;;;22.90;99.90;;;;;;5025384;28;20478;-80
2022/07/23 08:53:13;;;;;;;6.30;5.90;;;23.40;99.90;;;;;;5023362;28;20550;-82
2022/07/23 08:56:01;;;;;;;7.13;6.43;;;23.70;99.90;;;;;;5021904;28;20486;-81
2022/07/23 08:58:46;;;;;;;6.77;6.17;;;23.50;99.90;;;;;;5022579;28;20435;-82
2022/07/23 09:01:31;;;;;;;7.70;6.50;;;23.70;99.90;;;;;;5021508;28;20438;-81
2022/07/23 09:04:15;;;;;;;7.07;6.47;;;24.30;99.90;;;;;;5022488;28;20403;-80
2022/07/23 09:07:02;;;;;;;10.43;7.13;;;24.30;99.90;;;;;;5022574;28;20888;-81
2022/07/23 09:09:46;;;;;;;10.40;7.40;;;24.20;99.90;;;;;;5022328;28;20407;-80
2022/07/23 09:12:30;;;;;;;7.40;6.70;;;24.40;99.90;;;;;;5022544;28;20446;-81
2022/07/23 09:15:15;;;;;;;9.73;7.10;;;24.60;99.90;;;;;;5022301;28;20471;-81
2022/07/23 09:17:59;;;;;;;7.63;6.70;;;24.30;99.90;;;;;;5022253;28;20392;-81
2022/07/23 09:20:44;;;;;;;7.60;6.90;;;24.90;99.90;;;;;;5021692;28;20478;-81
2022/07/23 09:23:44;;;;;;;8.37;7.53;;;25.00;99.90;;;;;;5022630;28;20418;-82
2022/07/23 09:26:34;;;;;;;8.35;7.55;;;24.80;99.90;;;;;;5021479;28;20426;-80
2022/07/23 09:29:22;;;;;;;7.30;6.70;;;24.70;99.90;;;;;;5022840;28;20280;-81
2022/07/23 09:32:13;;;;;;;8.23;7.40;;;24.90;99.90;;;;;;5022673;28;20411;-81
2022/07/23 09:34:58;;;;;;;8.30;7.50;;;25.00;99.90;;;;;;5022486;28;20416;-81
2022/07/23 09:38:01;;;;;;;9.10;7.43;;;24.80;99.90;;;;;;5021120;28;20388;-80
2022/07/23 09:40:47;;;;;;;9.30;8.50;;;25.30;99.90;;;;;;5021910;28;20743;-80
2022/07/23 09:43:31;;;;;;;8.97;8.07;;;25.50;99.90;;;;;;5021824;28;20467;-82
2022/07/23 09:46:31;;;;;;;9.23;8.33;;;25.70;99.90;;;;;;5009977;28;20515;-81
2022/07/23 09:49:18;;;;;;;9.63;8.00;;;25.40;99.90;;;;;;5024526;28;20490;-83
2022/07/23 09:52:03;;;;;;;9.07;8.23;;;25.60;99.90;;;;;;5025659;28;20410;-80
2022/07/23 09:54:59;;;;;;;7.23;6.60;;;25.80;99.90;;;;;;5025252;28;20807;-81
2022/07/23 09:57:45;;;;;;;10.93;9.10;;;26.20;99.90;;;;;;5027084;28;20462;-80
2022/07/23 10:00:32;;;;;;;10.80;8.70;;;26.60;99.90;;;;;;5010469;28;20907;-81
2022/07/23 10:03:19;;;;;;;10.73;9.33;;;26.00;99.90;;;;;;5024776;28;20419;-81
2022/07/23 10:06:04;;;;;;;9.13;8.23;;;26.10;99.90;;;;;;5024479;28;20390;-82
2022/07/23 10:08:50;;;;;;;9.13;8.23;;;26.30;99.90;;;;;;5008758;28;20403;-80
2022/07/23 10:11:36;;;;;;;9.20;8.10;;;26.80;99.90;;;;;;5024277;28;20450;-81
2022/07/23 10:14:21;;;;;;;8.53;7.73;;;25.80;99.90;;;;;;5023925;28;20502;-80
2022/07/23 10:17:06;;;;;;;7.47;6.97;;;26.40;99.90;;;;;;5007762;28;20411;-78
2022/07/23 10:19:50;;;;;;;8.10;7.27;;;26.70;99.90;;;;;;5008811;28;20419;-80
2022/07/23 10:22:38;;;;;;;6.90;6.40;;;26.90;99.90;;;;;;5024219;28;20411;-83
2022/07/23 10:25:46;;;;;;;10.43;9.10;;;27.30;99.90;;;;;;5024431;28;20391;-80
2022/07/23 10:28:46;;;;;;;9.17;8.27;;;26.60;99.90;;;;;;5024023;28;20415;-81
2022/07/23 10:31:52;;;;;;;8.73;7.80;;;26.50;99.90;;;;;;4951578;29;20412;-81
2022/07/23 10:34:48;;;;;;;8.77;7.67;;;26.90;99.90;;;;;;4952648;28;20599;-83
2022/07/23 10:37:40;;;;;;;8.13;7.33;;;27.20;99.90;;;;;;4964303;29;20923;-82
2022/07/23 10:40:24;;;;;;;7.60;6.90;;;27.50;99.90;;;;;;4949965;29;20915;-82
2022/07/23 10:43:16;;;;;;;9.30;8.30;;;27.30;99.90;;;;;;4962118;29;20394;-81
2022/07/23 10:46:25;;;;;;;11.10;10.00;;;27.70;99.90;;;;;;4961333;29;20446;-81
2022/07/23 10:49:29;;;;;;;8.87;8.07;;;27.10;99.90;;;;;;4945619;29;20958;-81
2022/07/23 10:52:20;;;;;;;8.33;7.53;;;27.60;99.90;;;;;;4941582;29;20418;-82
2022/07/23 10:55:24;;;;;;;9.03;8.30;;;27.90;99.90;;;;;;4942226;29;20464;-83
2022/07/23 10:58:09;;;;;;;8.40;7.60;;;27.90;99.90;;;;;;4940173;29;20443;-83
2022/07/23 11:00:53;;;;;;;9.93;9.13;;;28.30;99.90;;;;;;4941450;29;20427;-83
2022/07/23 11:03:39;;;;;;;9.33;8.50;;;28.30;99.90;;;;;;5001412;28;20392;-82
2022/07/23 11:07:05;;;;;;;8.97;8.23;;;28.40;99.90;;;;;;5001650;28;20458;-82
2022/07/23 11:09:49;;;;;;;8.10;7.40;;;28.50;99.90;;;;;;4989039;28;20396;-82
2022/07/23 11:12:35;;;;;;;12.63;9.20;;;28.50;99.90;;;;;;5001140;28;20451;-82
2022/07/23 11:15:19;;;;;;;10.30;9.30;;;28.10;99.90;;;;;;5000075;28;20841;-83
2022/07/23 11:18:05;;;;;;;8.80;8.00;;;28.00;99.90;;;;;;4986040;28;20563;-83
2022/07/23 11:20:52;;;;;;;12.13;9.33;;;28.30;99.90;;;;;;5000056;28;20389;-82
2022/07/23 11:24:00;;;;;;;8.07;7.27;;;28.40;99.90;;;;;;5000785;28;20573;-81
2022/07/23 11:26:48;;;;;;;8.23;6.80;;;28.50;99.90;;;;;;5001002;28;20412;-83
2022/07/23 11:29:41;;;;;;;8.70;7.93;;;28.70;99.90;;;;;;5001505;28;20420;-82
2022/07/23 11:32:30;;;;;;;8.47;7.77;;;28.40;99.90;;;;;;4986546;28;20555;-82
2022/07/23 11:35:25;;;;;;;8.40;7.20;;;29.20;99.90;;;;;;4986142;28;20455;-81
2022/07/23 11:38:16;;;;;;;10.33;7.87;;;29.40;99.90;;;;;;4986741;28;20396;-81
2022/07/23 11:41:02;;;;;;;8.33;7.63;;;29.50;99.90;;;;;;5000460;28;20389;-82
2022/07/23 11:43:47;;;;;;;8.30;7.60;;;29.40;99.90;;;;;;4959015;29;20425;-83
2022/07/23 11:46:31;;;;;;;6.60;6.10;;;28.90;99.90;;;;;;4945305;28;20421;-81
2022/07/23 11:49:16;;;;;;;10.40;7.80;;;28.70;99.90;;;;;;4974932;28;20838;-82
2022/07/23 11:52:22;;;;;;;8.57;7.77;;;28.80;99.90;;;;;;4948592;29;20469;-82
2022/07/23 11:55:09;;;;;;;10.63;8.43;;;29.00;99.90;;;;;;4959430;29;20390;-80
2022/07/23 11:57:54;;;;;;;7.93;7.13;;;28.80;99.90;;;;;;4958935;29;20441;-81
2022/07/23 12:00:41;;;;;;;7.77;7.17;;;28.60;99.90;;;;;;4958507;29;20430;-81
2022/07/23 12:03:26;;;;;;;7.93;7.13;;;28.90;99.90;;;;;;4959346;29;20426;-81
2022/07/23 12:06:11;;;;;;;8.77;7.97;;;29.10;99.90;;;;;;4959890;28;20417;-81
2022/07/23 12:08:55;;;;;;;7.70;7.10;;;29.60;99.90;;;;;;4958799;28;20417;-82
2022/07/23 12:11:55;;;;;;;11.83;7.10;;;30.00;99.90;;;;;;4958287;29;20616;-83
2022/07/23 12:14:53;;;;;;;9.60;8.60;;;30.10;99.90;;;;;;4980557;28;20412;-80
2022/07/23 12:17:45;;;;;;;8.40;7.50;;;29.90;99.90;;;;;;4998615;28;20224;-80
2022/07/23 12:20:53;;;;;;;8.30;7.60;;;29.90;99.90;;;;;;5003301;28;20836;-79
2022/07/23 12:24:14;;;;;;;8.27;7.47;;;30.00;99.90;;;;;;4947688;29;20410;-80
2022/07/23 12:27:14;;;;;;;8.77;7.65;;;30.40;99.90;;;;;;4956492;29;20495;-80
2022/07/23 12:30:23;;;;;;;7.78;7.07;;;31.00;99.90;;;;;;4956844;29;20206;-79
2022/07/23 12:33:10;;;;;;;8.50;7.75;;;31.60;99.90;;;;;;4906155;29;20242;-80
2022/07/23 12:35:57;;;;;;;8.63;7.82;;;32.10;99.90;;;;;;4918965;29;20198;-79
2022/07/23 12:38:46;;;;;;;9.45;8.57;;;31.90;98.60;;;;;;4904954;29;20199;-78
2022/07/23 12:41:51;;;;;;;7.88;7.28;;;31.30;98.10;;;;;;4905023;29;20221;-79
2022/07/23 12:44:35;;;;;;;7.28;6.68;;;31.20;99.00;;;;;;4906094;29;20242;-79
2022/07/23 12:47:22;;;;;;;9.00;8.18;;;31.40;98.50;;;;;;4918601;29;20227;-80
2022/07/23 12:50:29;;;;;;;8.75;6.47;;;31.20;99.50;;;;;;4904733;29;20277;-79
2022/07/23 12:53:18;;;;;;;10.93;7.68;;;31.90;96.70;;;;;;4897123;29;20206;-84
2022/07/23 12:56:13;;;;;;;8.95;8.15;;;32.10;95.60;;;;;;4905720;29;20755;-81
2022/07/23 12:59:10;;;;;;;8.75;7.03;;;32.40;92.40;;;;;;4906575;29;20178;-80
2022/07/23 13:01:59;;;;;;;8.43;7.25;;;32.50;92.60;;;;;;4906527;29;20236;-79
2022/07/23 13:04:43;;;;;;;7.32;6.72;;;31.50;93.60;;;;;;4919059;29;20247;-81
2022/07/23 13:07:28;;;;;;;7.88;7.15;;;31.80;93.40;;;;;;4906061;29;20182;-82
2022/07/23 13:10:12;;;;;;;8.00;7.35;;;31.50;92.50;;;;;;4892479;29;20212;-81
2022/07/23 13:13:04;;;;;;;7.03;6.43;;;31.40;92.70;;;;;;4934311;29;20170;-80
2022/07/23 13:15:48;;;;;;;7.32;6.63;;;31.50;92.30;;;;;;4893440;29;20212;-82
2022/07/23 13:18:36;;;;;;;7.90;7.30;;;31.60;92.20;;;;;;4887603;29;20191;-81
2022/07/23 13:21:21;;;;;;;6.55;6.00;;;31.50;91.40;;;;;;4916860;29;20438;-81
2022/07/23 13:24:05;;;;;;;7.22;6.53;;;31.20;90.70;;;;;;4926042;29;20266;-81
2022/07/23 13:26:55;;;;;;;6.95;6.43;;;31.00;91.90;;;;;;4928000;29;20170;-82
2022/07/23 13:29:41;;;;;;;7.07;6.40;;;31.00;90.90;;;;;;4947420;29;20243;-82
2022/07/23 13:32:26;;;;;;;7.68;6.97;;;30.90;92.40;;;;;;4932753;29;20211;-80
2022/07/23 13:35:11;;;;;;;8.10;6.43;;;30.80;92.90;;;;;;4935891;29;20194;-78
2022/07/23 13:38:17;;;;;;;6.70;6.10;;;30.30;93.80;;;;;;4933606;29;20219;-81
2022/07/23 13:41:03;;;;;;;6.97;6.40;;;30.50;94.30;;;;;;4906291;29;20289;-79
2022/07/23 13:43:47;;;;;;;8.47;7.50;;;30.90;94.60;;;;;;4906318;29;20545;-80
2022/07/23 13:46:32;;;;;;;6.53;5.93;;;31.60;94.80;;;;;;4886675;29;20284;-82
2022/07/23 13:49:17;;;;;;;7.15;6.50;;;31.80;91.50;;;;;;4911052;29;20706;-82
2022/07/23 13:52:05;;;;;;;9.38;7.03;;;31.60;92.10;;;;;;4891488;29;20289;-80
2022/07/23 13:54:51;;;;;;;7.63;7.03;;;31.60;92.40;;;;;;4916800;29;20271;-83
2022/07/23 13:57:37;;;;;;;7.13;6.63;;;31.70;90.10;;;;;;4928752;29;20380;-83
2022/07/23 14:00:24;;;;;;;6.30;5.80;;;31.80;90.10;;;;;;4872179;29;20257;-82
2022/07/23 14:03:13;;;;;;;6.95;6.35;;;32.20;87.90;;;;;;4861890;29;20296;-81
2022/07/23 14:05:59;;;;;;;6.00;5.50;;;32.10;86.20;;;;;;4819211;29;20263;-81
2022/07/23 14:08:44;;;;;;;7.15;6.35;;;31.60;85.90;;;;;;4828575;29;20273;-81
2022/07/23 14:11:30;;;;;;;7.75;6.20;;;31.20;89.20;;;;;;4855472;29;20240;-81
2022/07/23 14:14:36;;;;;;;6.45;5.70;;;30.90;90.00;;;;;;5079466;28;20475;-81
2022/07/23 14:17:21;;;;;;;11.30;6.60;;;30.70;90.40;;;;;;5079458;28;20657;-81
2022/07/23 14:20:09;;;;;;;7.03;6.37;;;30.50;90.70;;;;;;5017341;28;20214;-81
2022/07/23 14:22:56;;;;;;;6.60;6.10;;;30.40;91.00;;;;;;4979519;28;20196;-82